Time;durP1;ratioP1;P1;durP2;ratioP2;P2;SDS_P1;SDS_P2;PMS_P1;PMS_P2;Temp;Humidity;BMP_temperature;BMP_pressure;BME280_temperature;BME280_humidity;BME280_pressure;Samples;Min_cycle;Max_cycle;Signal;HPM_P1;HPM_P2
2022/11/20 00:01:26;;;;;;;18.00;8.95;;;;;;;-2.64;100.00;101257.97;5073650;28;20059;-47
2022/11/20 00:03:57;;;;;;;16.80;8.85;;;;;;;-2.72;100.00;101252.00;5073446;28;20056;-47
2022/11/20 00:06:26;;;;;;;16.90;8.70;;;;;;;-2.69;100.00;101251.97;5073727;28;20132;-46
2022/11/20 00:08:56;;;;;;;17.05;8.93;;;;;;;-2.74;100.00;101248.53;5073494;28;20047;-49
2022/11/20 00:11:27;;;;;;;16.42;9.43;;;;;;;-2.74;100.00;101249.44;5073497;28;20525;-48
2022/11/20 00:13:58;;;;;;;17.02;9.02;;;;;;;-2.66;100.00;101251.94;5073419;28;20509;-48
2022/11/20 00:16:28;;;;;;;15.70;8.63;;;;;;;-2.67;100.00;101244.22;5073258;28;20052;-47
2022/11/20 00:18:56;;;;;;;16.27;8.90;;;;;;;-2.72;100.00;101239.13;5073551;28;20080;-49
2022/11/20 00:21:27;;;;;;;17.42;8.93;;;;;;;-2.72;100.00;101239.97;5073137;28;20075;-49
2022/11/20 00:23:56;;;;;;;15.32;8.65;;;;;;;-2.79;100.00;101237.44;5073740;28;20048;-48
2022/11/20 00:26:28;;;;;;;15.52;8.88;;;;;;;-2.78;100.00;101227.13;5073286;28;20110;-47
2022/11/20 00:28:58;;;;;;;17.20;9.10;;;;;;;-2.85;100.00;101222.00;5073399;28;20049;-50
2022/11/20 00:31:27;;;;;;;18.83;9.88;;;;;;;-2.89;100.00;101221.13;5073676;28;20439;-47
2022/11/20 00:33:56;;;;;;;16.80;9.32;;;;;;;-2.89;100.00;101221.13;5073351;28;20442;-50
2022/11/20 00:36:26;;;;;;;18.23;9.60;;;;;;;-2.91;100.00;101220.28;5073197;28;20462;-48
2022/11/20 00:38:55;;;;;;;19.65;9.90;;;;;;;-3.01;100.00;101223.75;5072745;28;20052;-45
2022/11/20 00:41:24;;;;;;;19.40;10.45;;;;;;;-3.05;100.00;101222.91;5072733;28;20403;-48
2022/11/20 00:43:55;;;;;;;16.40;8.93;;;;;;;-3.02;100.00;101224.63;5072153;28;20049;-46
2022/11/20 00:46:25;;;;;;;16.67;9.73;;;;;;;-2.96;100.00;101222.03;5068831;28;20045;-46
2022/11/20 00:48:53;;;;;;;16.40;9.40;;;;;;;-3.06;100.00;101223.78;5070976;28;20044;-49
2022/11/20 00:51:22;;;;;;;16.98;9.25;;;;;;;-2.98;100.00;101221.19;5072911;28;20047;-46
2022/11/20 00:53:50;;;;;;;14.65;9.02;;;;;;;-2.90;100.00;101230.59;5072743;28;20040;-47
2022/11/20 00:56:20;;;;;;;16.90;9.20;;;;;;;-2.95;100.00;101232.31;5073037;28;20448;-46
2022/11/20 00:58:49;;;;;;;16.83;9.48;;;;;;;-3.05;100.00;101228.06;5071626;28;20067;-48
2022/11/20 01:01:20;;;;;;;16.40;9.77;;;;;;;-3.03;100.00;101215.19;5072670;28;20502;-49
2022/11/20 01:03:50;;;;;;;16.30;9.35;;;;;;;-3.02;100.00;101207.47;5069875;28;20566;-47
2022/11/20 01:06:21;;;;;;;17.65;10.20;;;;;;;-3.12;100.00;101211.78;5067364;28;20400;-46
2022/11/20 01:08:51;;;;;;;17.90;10.05;;;;;;;-3.03;100.00;101220.34;5072612;28;20098;-47
2022/11/20 01:11:21;;;;;;;25.38;15.02;;;;;;;-3.01;100.00;101224.63;5071486;28;20152;-46
2022/11/20 01:13:51;;;;;;;27.17;13.95;;;;;;;-3.01;100.00;101222.06;5072660;28;20048;-46
2022/11/20 01:16:22;;;;;;;22.02;11.88;;;;;;;-3.13;100.00;101224.66;5072733;28;20418;-46
2022/11/20 01:18:53;;;;;;;21.13;11.85;;;;;;;-3.09;100.00;101216.91;5072395;28;20052;-47
2022/11/20 01:21:23;;;;;;;20.17;11.40;;;;;;;-3.10;100.00;101217.75;5069124;28;20044;-47
2022/11/20 01:23:52;;;;;;;20.85;11.32;;;;;;;-3.16;100.00;101204.94;5069424;28;20400;-48
2022/11/20 01:26:22;;;;;;;18.15;10.75;;;;;;;-3.15;100.00;101205.78;5072177;28;20044;-48
2022/11/20 01:28:51;;;;;;;19.00;10.35;;;;;;;-3.19;100.00;101199.81;5072121;28;20044;-50
2022/11/20 01:31:23;;;;;;;17.80;10.80;;;;;;;-3.15;100.00;101200.63;5071972;28;20541;-50
2022/11/20 01:33:53;;;;;;;17.98;10.05;;;;;;;-3.18;100.00;101201.50;5068854;28;20060;-47
2022/11/20 01:36:22;;;;;;;17.45;9.65;;;;;;;-3.24;100.00;101197.22;5070046;28;20067;-51
2022/11/20 01:38:52;;;;;;;18.73;10.40;;;;;;;-3.23;100.00;101198.94;5072377;28;20098;-47
2022/11/20 01:44:10;;;;;;;18.08;9.25;;;;;;;-3.23;100.00;101191.22;5072468;28;20105;-48
2022/11/20 01:46:43;;;;;;;18.50;9.48;;;;;;;-3.15;100.00;101190.34;5072550;28;20041;-51
2022/11/20 01:49:17;;;;;;;17.63;8.80;;;;;;;-3.27;100.00;101181.81;5072521;28;20057;-51
2022/11/20 01:51:50;;;;;;;16.85;9.70;;;;;;;-3.28;100.00;101184.38;5072202;28;20052;-47
2022/11/20 01:54:22;;;;;;;19.05;9.38;;;;;;;-3.27;100.00;101191.25;5072164;28;20061;-48
2022/11/20 01:56:54;;;;;;;17.02;9.18;;;;;;;-3.27;100.00;101194.66;5072554;28;20061;-47
2022/11/20 01:59:25;;;;;;;17.20;9.10;;;;;;;-3.26;100.00;101183.53;5072137;28;20044;-48
2022/11/20 02:01:54;;;;;;;17.25;9.50;;;;;;;-3.33;100.00;101186.09;5073492;28;20041;-46
2022/11/20 02:04:24;;;;;;;16.90;9.38;;;;;;;-3.35;100.00;101174.94;5075963;28;20059;-47
2022/11/20 02:06:58;;;;;;;17.75;8.85;;;;;;;-3.38;100.00;101188.69;5075673;28;20045;-48
2022/11/20 02:09:27;;;;;;;19.63;9.30;;;;;;;-3.36;100.00;101194.69;5076218;28;20496;-51
2022/11/20 02:11:57;;;;;;;17.20;9.13;;;;;;;-3.38;100.00;101192.97;5075415;28;20041;-48
2022/11/20 02:14:25;;;;;;;17.00;8.65;;;;;;;-3.45;100.00;101192.13;5075587;28;20102;-46
2022/11/20 02:16:55;;;;;;;17.15;8.88;;;;;;;-3.32;100.00;101183.53;5074573;28;20056;-46
2022/11/20 02:19:27;;;;;;;17.77;9.45;;;;;;;-3.45;100.00;101177.56;5075710;28;20050;-47
2022/11/20 02:22:03;;;;;;;16.42;9.27;;;;;;;-3.39;100.00;101181.84;5075984;28;20140;-48
2022/11/20 02:24:33;;;;;;;15.43;9.15;;;;;;;-3.38;100.00;101183.56;5072610;28;20044;-48
2022/11/20 02:27:07;;;;;;;18.80;9.80;;;;;;;-3.57;100.00;101186.13;5072214;28;20075;-47
2022/11/20 02:29:39;;;;;;;18.00;9.30;;;;;;;-3.58;100.00;101181.84;5074751;28;20169;-46
2022/11/20 02:32:19;;;;;;;17.50;9.18;;;;;;;-3.54;100.00;101179.25;5075732;28;20044;-46
2022/11/20 02:34:47;;;;;;;28.23;13.00;;;;;;;-3.49;100.00;101182.69;5074253;28;20130;-46
2022/11/20 02:37:16;;;;;;;35.50;15.13;;;;;;;-3.50;100.00;101178.44;5075361;28;20044;-47
2022/11/20 02:39:47;;;;;;;34.83;15.23;;;;;;;-3.58;100.00;101176.69;5075469;28;20060;-48
2022/11/20 02:42:16;;;;;;;26.63;11.90;;;;;;;-3.55;100.00;101175.84;5075677;28;20094;-47
2022/11/20 02:44:44;;;;;;;30.33;13.85;;;;;;;-3.62;100.00;101176.72;5075398;28;20036;-47
2022/11/20 02:47:12;;;;;;;34.95;14.95;;;;;;;-3.62;100.00;101185.28;5075061;28;20501;-49
2022/11/20 02:49:40;;;;;;;30.08;13.75;;;;;;;-3.63;100.00;101177.56;5075000;28;20449;-51
2022/11/20 02:52:08;;;;;;;38.28;16.20;;;;;;;-3.57;100.00;101167.28;5075240;28;20503;-50
2022/11/20 02:54:36;;;;;;;35.08;15.13;;;;;;;-3.52;100.00;101173.25;5070639;28;20056;-52
2022/11/20 02:57:07;;;;;;;25.35;11.70;;;;;;;-3.61;100.00;101166.44;5072016;28;20051;-54
2022/11/20 02:59:35;;;;;;;22.70;10.65;;;;;;;-3.68;100.00;101162.16;5073770;28;20404;-52
2022/11/20 03:02:03;;;;;;;21.33;10.55;;;;;;;-3.72;100.00;101163.03;5071626;28;20544;-50
2022/11/20 03:04:32;;;;;;;28.38;12.77;;;;;;;-3.64;100.00;101171.59;5073340;28;20087;-50
2022/11/20 03:07:01;;;;;;;28.42;12.77;;;;;;;-3.60;100.00;101168.16;5074922;28;20091;-51
2022/11/20 03:09:29;;;;;;;28.02;12.82;;;;;;;-3.60;100.00;101173.28;5069146;28;20499;-51
2022/11/20 03:11:57;;;;;;;25.88;12.45;;;;;;;-3.67;100.00;101158.72;5071432;28;20131;-50
2022/11/20 03:14:27;;;;;;;25.20;12.27;;;;;;;-3.70;100.00;101161.28;5070551;28;20075;-52
2022/11/20 03:16:56;;;;;;;23.80;11.25;;;;;;;-3.77;100.00;101159.59;5071465;28;20047;-52
2022/11/20 03:19:24;;;;;;;20.42;10.50;;;;;;;-3.79;100.00;101156.16;5073784;28;20048;-53
2022/11/20 03:21:52;;;;;;;20.38;10.35;;;;;;;-3.80;100.00;101149.31;5071554;28;20052;-51
2022/11/20 03:24:21;;;;;;;21.38;10.45;;;;;;;-3.82;100.00;101140.75;5069341;28;20048;-51
2022/11/20 03:26:49;;;;;;;20.02;11.07;;;;;;;-3.84;100.00;101137.34;5074699;28;20052;-49
2022/11/20 03:29:17;;;;;;;21.25;9.93;;;;;;;-3.85;100.00;101135.63;5072190;28;20063;-46
2022/11/20 03:31:47;;;;;;;20.38;9.45;;;;;;;-3.88;100.00;101135.63;5070138;28;20148;-45
2022/11/20 03:34:15;;;;;;;20.50;10.43;;;;;;;-3.87;100.00;101134.75;5072708;28;20106;-48
2022/11/20 03:36:43;;;;;;;20.15;10.18;;;;;;;-3.87;100.00;101133.03;5074544;28;20059;-48
2022/11/20 03:39:12;;;;;;;19.65;10.13;;;;;;;-3.85;100.00;101125.34;5074578;28;20045;-46
2022/11/20 03:41:41;;;;;;;17.23;9.77;;;;;;;-3.90;100.00;101133.03;5074388;28;20048;-53
2022/11/20 03:44:12;;;;;;;18.92;9.32;;;;;;;-3.95;100.00;101138.19;5073855;28;20060;-50
2022/11/20 03:46:40;;;;;;;17.80;9.57;;;;;;;-4.01;100.00;101143.31;5071171;28;20578;-54
2022/11/20 03:49:09;;;;;;;18.63;9.32;;;;;;;-3.95;100.00;101145.03;5070782;28;20048;-51
2022/11/20 03:51:37;;;;;;;17.55;9.10;;;;;;;-3.99;100.00;101139.03;5072258;28;20052;-51
2022/11/20 03:54:07;;;;;;;19.10;10.40;;;;;;;-3.97;100.00;101144.19;5067125;28;20055;-51
2022/11/20 03:56:38;;;;;;;20.80;10.05;;;;;;;-4.15;100.00;101129.63;5072816;28;20450;-50
2022/11/20 03:59:06;;;;;;;19.17;10.15;;;;;;;-4.08;100.00;101127.06;5073713;28;20052;-53
2022/11/20 04:01:37;;;;;;;18.70;10.32;;;;;;;-4.02;100.00;101113.34;5073494;28;20476;-53
2022/11/20 04:04:06;;;;;;;19.77;9.20;;;;;;;-4.13;100.00;101125.31;5073672;28;20532;-53
2022/11/20 04:06:38;;;;;;;22.58;10.20;;;;;;;-4.05;100.00;101130.47;5073534;28;20361;-48
2022/11/20 04:09:07;;;;;;;17.63;9.43;;;;;;;-4.13;100.00;101131.34;5070107;28;20435;-49
2022/11/20 04:11:37;;;;;;;18.38;10.23;;;;;;;-4.00;100.00;101126.19;5069941;28;20136;-51
2022/11/20 04:14:07;;;;;;;18.77;9.35;;;;;;;-4.09;100.00;101122.78;5073047;28;20052;-52
2022/11/20 04:16:37;;;;;;;21.80;10.93;;;;;;;-4.12;100.00;101122.78;5069738;28;20040;-49
2022/11/20 04:19:06;;;;;;;20.02;11.00;;;;;;;-4.05;100.00;101125.34;5069547;28;20048;-50
2022/11/20 04:21:36;;;;;;;22.73;9.95;;;;;;;-4.11;100.00;101123.63;5073130;28;20048;-51
2022/11/20 04:24:05;;;;;;;17.55;10.52;;;;;;;-4.12;100.00;101121.91;5072684;28;20044;-52
2022/11/20 04:26:33;;;;;;;22.70;10.50;;;;;;;-4.10;100.00;101115.06;5073558;28;20579;-49
2022/11/20 04:29:02;;;;;;;17.40;8.63;;;;;;;-4.06;100.00;101116.78;5072176;28;20380;-50
2022/11/20 04:31:32;;;;;;;19.20;9.50;;;;;;;-4.06;100.00;101121.91;5073344;28;20055;-51
2022/11/20 04:34:01;;;;;;;19.63;10.02;;;;;;;-4.18;100.00;101121.91;5072762;28;20102;-47
2022/11/20 04:36:30;;;;;;;16.50;9.23;;;;;;;-4.11;100.00;101123.63;5072884;28;20040;-47
2022/11/20 04:39:01;;;;;;;18.52;9.88;;;;;;;-4.25;100.00;101116.78;5073066;28;20067;-48
2022/11/20 04:41:31;;;;;;;19.43;10.77;;;;;;;-4.22;100.00;101110.78;5073128;28;20048;-46
2022/11/20 04:44:02;;;;;;;20.25;10.63;;;;;;;-4.27;100.00;101107.34;5073132;28;20040;-45
2022/11/20 04:46:33;;;;;;;20.52;10.18;;;;;;;-4.26;100.00;101111.63;5072941;28;20094;-46
2022/11/20 04:49:01;;;;;;;18.38;9.65;;;;;;;-4.24;100.00;101115.03;5073140;28;20044;-46
2022/11/20 04:51:29;;;;;;;21.48;10.82;;;;;;;-4.35;100.00;101115.06;5072663;28;20122;-46
2022/11/20 04:53:59;;;;;;;22.83;11.30;;;;;;;-4.30;100.00;101115.91;5072859;28;20556;-46
2022/11/20 04:56:27;;;;;;;21.50;11.15;;;;;;;-4.30;100.00;101113.34;5072492;28;20052;-47
2022/11/20 04:58:56;;;;;;;22.40;12.07;;;;;;;-4.36;100.00;101112.47;5073091;28;20127;-45
2022/11/20 05:01:25;;;;;;;21.58;11.48;;;;;;;-4.35;100.00;101106.50;5072770;28;20044;-47
2022/11/20 05:03:53;;;;;;;21.08;11.10;;;;;;;-4.31;100.00;101105.63;5072886;28;20083;-45
2022/11/20 05:06:22;;;;;;;23.35;11.18;;;;;;;-4.37;100.00;101105.66;5072616;28;20110;-47
2022/11/20 05:08:51;;;;;;;21.27;11.07;;;;;;;-4.39;100.00;101099.63;5071588;28;20044;-49
2022/11/20 05:11:22;;;;;;;20.30;10.88;;;;;;;-4.41;100.00;101097.06;5072834;28;20048;-51
2022/11/20 05:13:50;;;;;;;22.38;11.85;;;;;;;-4.44;100.00;101097.91;5072845;28;20036;-53
2022/11/20 05:16:21;;;;;;;21.98;10.95;;;;;;;-4.50;100.00;101095.38;5072752;28;20048;-52
2022/11/20 05:18:51;;;;;;;19.77;9.98;;;;;;;-4.41;100.00;101091.94;5072974;28;20048;-51
2022/11/20 05:21:20;;;;;;;18.15;10.23;;;;;;;-4.50;100.00;101087.66;5072389;28;20098;-52
2022/11/20 05:23:49;;;;;;;20.75;10.27;;;;;;;-4.48;100.00;101092.78;5069457;28;20087;-51
2022/11/20 05:26:21;;;;;;;22.15;10.55;;;;;;;-4.54;100.00;101080.81;5068675;28;20040;-52
2022/11/20 05:28:49;;;;;;;17.17;9.52;;;;;;;-4.39;100.00;101081.66;5069688;28;20146;-50
2022/11/20 05:31:20;;;;;;;18.65;9.65;;;;;;;-4.52;100.00;101071.38;5068322;28;20555;-53
2022/11/20 05:33:56;;;;;;;17.10;9.60;;;;;;;-4.56;100.00;101074.81;5068856;28;20055;-53
2022/11/20 05:36:24;;;;;;;19.25;10.48;;;;;;;-4.56;100.00;101074.81;5072789;28;20051;-53
2022/11/20 05:38:52;;;;;;;19.30;10.25;;;;;;;-4.65;100.00;101075.66;5076694;28;20399;-48
2022/11/20 05:41:29;;;;;;;19.67;9.55;;;;;;;-4.59;100.00;101082.50;5075929;28;20529;-48
2022/11/20 05:43:58;;;;;;;19.98;10.50;;;;;;;-4.49;100.00;101086.78;5076353;28;20086;-48
2022/11/20 05:46:27;;;;;;;21.50;11.10;;;;;;;-4.62;100.00;101091.06;5076250;28;20562;-51
2022/11/20 05:48:57;;;;;;;19.67;10.02;;;;;;;-4.70;100.00;101087.63;5076014;28;20560;-50
2022/11/20 05:51:27;;;;;;;16.85;9.60;;;;;;;-4.56;100.00;101073.97;5076340;28;20048;-50
2022/11/20 05:53:57;;;;;;;17.55;9.75;;;;;;;-4.62;100.00;101078.22;5076149;28;20037;-51
2022/11/20 05:56:25;;;;;;;22.38;10.27;;;;;;;-4.73;100.00;101086.75;5072533;28;20052;-49
2022/11/20 05:58:55;;;;;;;18.40;9.75;;;;;;;-4.84;100.00;101084.16;5073952;28;20499;-52
2022/11/20 06:01:24;;;;;;;20.80;11.00;;;;;;;-4.81;100.00;101091.88;5074140;28;20060;-52
2022/11/20 06:03:53;;;;;;;18.17;9.63;;;;;;;-4.80;100.00;101084.19;5071967;28;20048;-53
2022/11/20 06:06:22;;;;;;;18.40;10.57;;;;;;;-4.75;100.00;101085.03;5074252;28;20094;-49
2022/11/20 06:08:50;;;;;;;16.90;9.30;;;;;;;-4.71;100.00;101087.63;5075753;28;20106;-49
2022/11/20 06:11:18;;;;;;;18.27;10.38;;;;;;;-4.73;100.00;101087.63;5075252;28;20052;-47
2022/11/20 06:13:47;;;;;;;20.70;11.07;;;;;;;-4.70;100.00;101087.63;5072305;28;20110;-48
2022/11/20 06:16:19;;;;;;;20.33;11.20;;;;;;;-4.70;100.00;101084.19;5071850;28;20044;-49
2022/11/20 06:18:48;;;;;;;22.77;11.90;;;;;;;-4.73;100.00;101091.88;5075353;28;20515;-51
2022/11/20 06:21:18;;;;;;;22.10;12.02;;;;;;;-4.78;100.00;101097.03;5074639;28;20052;-48
2022/11/20 06:23:47;;;;;;;19.92;10.75;;;;;;;-4.72;100.00;101101.31;5070233;28;20051;-50
2022/11/20 06:26:17;;;;;;;17.83;10.38;;;;;;;-4.72;100.00;101103.88;5072199;28;20049;-50
2022/11/20 06:28:46;;;;;;;19.98;11.02;;;;;;;-4.72;100.00;101104.72;5072438;28;20045;-49
2022/11/20 06:31:18;;;;;;;18.58;10.15;;;;;;;-4.72;100.00;101109.00;5072344;28;20558;-50
2022/11/20 06:33:47;;;;;;;19.58;10.68;;;;;;;-4.75;100.00;101113.25;5075358;28;20036;-52
2022/11/20 06:36:17;;;;;;;19.00;10.15;;;;;;;-4.84;100.00;101102.13;5074716;28;20778;-53
2022/11/20 06:38:45;;;;;;;18.67;9.93;;;;;;;-4.78;100.00;101105.56;5068407;28;20048;-50
2022/11/20 06:41:16;;;;;;;16.60;9.90;;;;;;;-4.76;100.00;101100.44;5073892;28;20041;-49
2022/11/20 06:43:44;;;;;;;16.02;9.02;;;;;;;-4.80;100.00;101103.84;5075294;28;20070;-48
2022/11/20 06:46:13;;;;;;;16.40;9.52;;;;;;;-4.75;100.00;101109.84;5071827;28;20461;-52
2022/11/20 06:48:43;;;;;;;19.63;9.90;;;;;;;-4.72;100.00;101109.00;5070554;28;20053;-52
2022/11/20 06:51:11;;;;;;;17.52;9.48;;;;;;;-4.82;100.00;101119.25;5072266;28;20049;-53
2022/11/20 06:53:39;;;;;;;18.90;9.80;;;;;;;-4.90;100.00;101114.97;5070121;28;20040;-50
2022/11/20 06:56:08;;;;;;;20.27;10.32;;;;;;;-4.89;100.00;101119.22;5070846;28;20036;-52
2022/11/20 06:58:37;;;;;;;21.45;10.88;;;;;;;-4.86;100.00;101114.97;5071215;28;20181;-54
2022/11/20 07:01:07;;;;;;;18.00;9.65;;;;;;;-4.83;100.00;101117.53;5071265;28;20106;-50
2022/11/20 07:03:35;;;;;;;18.85;10.35;;;;;;;-4.93;100.00;101116.66;5071222;28;20054;-53
2022/11/20 07:06:05;;;;;;;18.42;10.55;;;;;;;-4.94;100.00;101112.34;5074919;28;20053;-53
2022/11/20 07:08:34;;;;;;;18.35;9.77;;;;;;;-4.93;100.00;101114.06;5074630;28;20384;-53
2022/11/20 07:11:05;;;;;;;18.30;9.32;;;;;;;-4.85;100.00;101110.66;5074543;28;20109;-50
2022/11/20 07:13:33;;;;;;;19.80;10.27;;;;;;;-4.80;100.00;101114.09;5074547;28;20094;-49
2022/11/20 07:16:02;;;;;;;22.33;10.55;;;;;;;-4.84;100.00;101112.38;5074744;28;20127;-49
2022/11/20 07:18:30;;;;;;;20.05;10.60;;;;;;;-4.98;100.00;101112.34;5074397;28;20430;-46
2022/11/20 07:21:01;;;;;;;18.85;10.43;;;;;;;-5.08;100.00;101114.03;5074479;28;20098;-50
2022/11/20 07:23:30;;;;;;;18.40;9.93;;;;;;;-4.98;100.00;101112.34;5076054;28;20070;-52
2022/11/20 07:26:03;;;;;;;17.95;9.13;;;;;;;-4.88;100.00;101103.84;5076199;28;20041;-48
2022/11/20 07:28:31;;;;;;;17.48;9.93;;;;;;;-4.83;100.00;101091.03;5077359;28;20052;-46
2022/11/20 07:30:59;;;;;;;20.08;11.93;;;;;;;-4.68;100.00;101093.59;5077695;28;20468;-46
2022/11/20 07:33:27;;;;;;;18.92;10.10;;;;;;;-4.66;100.00;101102.19;5073979;28;20522;-47
2022/11/20 07:35:55;;;;;;;20.83;10.80;;;;;;;-4.61;100.00;101094.47;5074087;28;20044;-47
2022/11/20 07:38:25;;;;;;;22.75;11.05;;;;;;;-4.61;100.00;101090.22;5074029;28;20049;-45
2022/11/20 07:40:57;;;;;;;19.08;11.43;;;;;;;-4.54;100.00;101088.50;5073787;28;20095;-46
2022/11/20 07:43:26;;;;;;;24.30;11.52;;;;;;;-4.47;100.00;101087.66;5070171;28;20032;-45
2022/11/20 07:45:56;;;;;;;20.50;11.10;;;;;;;-4.48;100.00;101085.09;5072776;28;20106;-47
2022/11/20 07:48:24;;;;;;;24.73;12.43;;;;;;;-4.44;100.00;101085.09;5074120;28;20052;-45
2022/11/20 07:50:54;;;;;;;23.15;11.80;;;;;;;-4.35;100.00;101073.09;5074017;28;20458;-47
2022/11/20 07:53:22;;;;;;;20.13;10.82;;;;;;;-4.20;100.00;101074.81;5074113;28;20052;-46
2022/11/20 07:55:52;;;;;;;22.67;11.88;;;;;;;-4.11;100.00;101072.25;5072473;28;20052;-51
2022/11/20 07:58:22;;;;;;;21.05;11.85;;;;;;;-3.97;100.00;101074.78;5069843;28;20048;-47
2022/11/20 08:00:50;;;;;;;22.25;11.88;;;;;;;-3.71;100.00;101079.03;5070424;28;20056;-47
2022/11/20 08:03:19;;;;;;;19.83;10.77;;;;;;;-3.53;100.00;101086.72;5073887;28;20039;-47
2022/11/20 08:05:52;;;;;;;24.92;12.13;;;;;;;-3.70;100.00;101084.16;5073423;28;20055;-46
2022/11/20 08:08:20;;;;;;;22.77;11.55;;;;;;;-3.77;100.00;101085.03;5072831;28;20089;-45
2022/11/20 08:10:48;;;;;;;21.65;11.65;;;;;;;-3.62;100.00;101081.59;5071833;28;20196;-46
2022/11/20 08:16:03;;;;;;;19.90;11.57;;;;;;;-3.07;100.00;101093.38;5073485;28;20048;-48
2022/11/20 08:18:34;;;;;;;21.92;12.52;;;;;;;-3.00;100.00;101095.06;5073493;28;20101;-49
2022/11/20 08:21:04;;;;;;;19.33;11.27;;;;;;;-2.83;100.00;101096.72;5073525;28;20052;-47
2022/11/20 08:23:33;;;;;;;21.05;11.90;;;;;;;-2.98;100.00;101106.19;5073271;28;20072;-49
2022/11/20 08:26:01;;;;;;;24.42;12.65;;;;;;;-2.97;100.00;101097.63;5073354;28;20399;-46
2022/11/20 08:28:29;;;;;;;20.77;12.45;;;;;;;-2.91;100.00;101092.44;5073154;28;20376;-51
2022/11/20 08:31:01;;;;;;;27.05;12.20;;;;;;;-2.79;100.00;101094.09;5073357;28;20053;-49
2022/11/20 08:33:32;;;;;;;24.15;13.30;;;;;;;-2.88;100.00;101081.25;5073245;28;20044;-53
2022/11/20 08:36:01;;;;;;;22.65;12.18;;;;;;;-2.94;100.00;101094.19;5073271;28;20053;-50
2022/11/20 08:38:30;;;;;;;25.55;12.90;;;;;;;-2.94;100.00;101083.88;5073150;28;20383;-53
2022/11/20 08:43:57;;;;;;;22.52;12.80;;;;;;;-2.83;100.00;101083.84;5028717;28;20378;-51
2022/11/20 08:46:27;;;;;;;22.13;12.95;;;;;;;-2.83;100.00;101088.97;5064016;28;20048;-52
2022/11/20 08:48:57;;;;;;;24.55;12.70;;;;;;;-2.59;100.00;101073.38;5073130;28;20429;-50
2022/11/20 08:51:25;;;;;;;22.35;13.52;;;;;;;-2.57;100.00;101074.19;5073313;28;20566;-52
2022/11/20 08:53:53;;;;;;;24.17;12.73;;;;;;;-2.55;100.00;101069.91;5073071;28;20128;-51
2022/11/20 08:56:21;;;;;;;23.48;12.55;;;;;;;-2.55;100.00;101072.47;5071261;28;20040;-51
2022/11/20 08:58:51;;;;;;;24.25;13.10;;;;;;;-2.53;100.00;101064.75;5069409;28;20094;-50
2022/11/20 09:01:39;;;;;;;22.45;12.77;;;;;;;-2.42;100.00;101067.25;5069073;28;20483;-48
2022/11/20 09:04:09;;;;;;;21.98;13.30;;;;;;;-2.40;100.00;101058.63;5069244;28;20093;-50
2022/11/20 09:06:40;;;;;;;26.63;14.60;;;;;;;-2.28;100.00;101055.09;5069466;28;20045;-51
2022/11/20 09:09:08;;;;;;;22.50;13.35;;;;;;;-2.05;100.00;101054.03;5070379;28;20057;-48
2022/11/20 09:11:36;;;;;;;24.85;14.50;;;;;;;-2.24;100.00;101049.03;5072349;28;20048;-49
2022/11/20 09:14:04;;;;;;;24.10;14.30;;;;;;;-2.17;100.00;101049.84;5072554;28;20561;-49
2022/11/20 09:16:32;;;;;;;24.67;14.88;;;;;;;-1.92;100.00;101049.63;5072619;28;20072;-48
2022/11/20 09:19:03;;;;;;;25.85;13.88;;;;;;;-1.87;100.00;101043.53;5073001;28;20384;-48
2022/11/20 09:21:52;;;;;;;26.08;15.68;;;;;;;-1.92;100.00;101040.16;5072452;28;20554;-47
2022/11/20 09:24:26;;;;;;;25.70;14.82;;;;;;;-1.85;100.00;101045.22;5072058;28;20051;-47
2022/11/20 09:26:54;;;;;;;24.88;14.98;;;;;;;-1.81;100.00;101037.47;5072658;28;20135;-48
2022/11/20 09:29:22;;;;;;;27.40;16.67;;;;;;;-1.74;100.00;101041.69;5072279;28;20040;-49
2022/11/20 09:31:51;;;;;;;27.98;15.93;;;;;;;-1.70;100.00;101034.78;5071519;28;20419;-50
2022/11/20 09:34:19;;;;;;;25.90;15.88;;;;;;;-1.61;100.00;101031.22;5072578;28;20052;-50
2022/11/20 09:36:47;;;;;;;27.23;15.23;;;;;;;-1.58;100.00;101031.19;5072652;28;20411;-51
2022/11/20 09:39:17;;;;;;;26.20;15.73;;;;;;;-1.62;100.00;101037.25;5072399;28;20044;-52
2022/11/20 09:41:58;;;;;;;24.92;15.25;;;;;;;-1.57;100.00;101031.19;5072241;28;20115;-49
2022/11/20 09:44:53;;;;;;;27.00;15.88;;;;;;;-1.43;100.00;101025.84;5072525;28;20040;-51
2022/11/20 09:47:27;;;;;;;;;;;;;;;-1.39;100.00;101024.06;5068100;28;20064;-53
2022/11/20 09:50:11;;;;;;;27.02;15.65;;;;;;;-1.33;100.00;101030.91;5072660;28;19942;-52
2022/11/20 09:52:45;;;;;;;26.58;16.48;;;;;;;-1.22;100.00;101029.88;5072158;28;20109;-53
2022/11/20 09:55:16;;;;;;;26.92;15.43;;;;;;;-1.16;100.00;101028.09;5072044;28;20056;-51
2022/11/20 09:57:49;;;;;;;27.75;17.63;;;;;;;-1.10;100.00;101025.44;5072321;28;20055;-48
2022/11/20 10:00:19;;;;;;;;;;;;;;;-1.16;100.00;101026.34;5068602;28;20129;-48
2022/11/20 10:02:54;;;;;;;28.45;16.95;;;;;;;-1.13;100.00;101021.16;5069578;28;19982;-49
2022/11/20 10:05:28;;;;;;;29.10;16.98;;;;;;;-1.05;100.00;101015.88;5072076;28;20054;-48
2022/11/20 10:08:13;;;;;;;30.08;17.90;;;;;;;-1.00;100.00;101008.09;5070845;28;20098;-46
2022/11/20 10:10:45;;;;;;;28.85;17.23;;;;;;;-0.95;100.00;101006.28;5071739;28;20545;-48
2022/11/20 10:13:35;;;;;;;30.35;18.65;;;;;;;-0.90;100.00;100987.25;5071767;28;20094;-49
2022/11/20 10:16:18;;;;;;;29.23;17.73;;;;;;;-0.82;100.00;100983.69;5069824;28;20075;-53
2022/11/20 10:19:00;;;;;;;28.08;17.00;;;;;;;-0.72;100.00;100985.28;5066768;28;20098;-50
2022/11/20 10:21:39;;;;;;;30.15;17.13;;;;;;;-0.66;100.00;100985.16;5070030;28;20048;-52
2022/11/20 10:24:35;;;;;;;30.30;17.80;;;;;;;-0.63;100.00;100979.94;5069025;28;20051;-51
2022/11/20 10:27:23;;;;;;;28.67;16.58;;;;;;;-0.46;100.00;100973.63;5072237;28;20053;-50
2022/11/20 10:30:02;;;;;;;27.48;16.17;;;;;;;-0.37;100.00;100976.94;5072996;28;20048;-49
2022/11/20 10:32:38;;;;;;;30.42;18.25;;;;;;;-0.29;100.00;100974.19;5073590;28;20048;-47
2022/11/20 10:35:19;;;;;;;34.05;17.80;;;;;;;-0.19;100.00;100967.16;5071914;28;20052;-48
2022/11/20 10:37:50;;;;;;;34.25;17.63;;;;;;;-0.12;100.00;100960.97;5074409;28;20060;-48
2022/11/20 10:40:28;;;;;;;36.58;18.63;;;;;;;0.02;100.00;100958.09;5068757;28;20060;-49
2022/11/20 10:43:02;;;;;;;30.45;16.65;;;;;;;0.10;100.00;100957.97;5073867;28;20048;-47
2022/11/20 10:45:45;;;;;;;30.83;17.05;;;;;;;0.11;100.00;100955.34;5075407;28;20548;-49
2022/11/20 10:48:17;;;;;;;31.40;16.40;;;;;;;0.19;100.00;100951.75;5075546;28;20048;-49
2022/11/20 10:51:00;;;;;;;28.88;17.33;;;;;;;0.33;100.00;100953.16;5075241;28;20056;-51
2022/11/20 10:53:45;;;;;;;30.38;18.15;;;;;;;0.47;100.00;100949.44;5075123;28;20633;-48
2022/11/20 10:56:21;;;;;;;28.65;16.15;;;;;;;0.58;100.00;100939.69;5074181;28;20048;-50
2022/11/20 10:59:03;;;;;;;30.23;16.48;;;;;;;0.61;100.00;100938.78;5071432;28;20052;-47
2022/11/20 11:01:31;;;;;;;;;;;;;;;0.70;100.00;100935.16;5071440;28;20499;-51
2022/11/20 11:04:00;;;;;;;26.58;15.93;;;;;;;0.74;100.00;100929.88;5073442;28;19920;-48
2022/11/20 11:06:35;;;;;;;27.50;16.10;;;;;;;0.79;100.00;100935.78;5072207;28;20151;-49
2022/11/20 11:09:13;;;;;;;27.30;15.60;;;;;;;0.83;100.00;100937.44;5067590;28;20053;-54
2022/11/20 11:11:41;;;;;;;30.08;16.23;;;;;;;0.81;100.00;100923.66;5071650;28;20135;-51
2022/11/20 11:14:13;;;;;;;27.42;16.17;;;;;;;0.84;100.00;100918.38;5073366;28;20503;-52
2022/11/20 11:16:51;;;;;;;27.65;16.48;;;;;;;0.92;100.00;100910.44;5074961;28;20052;-54
2022/11/20 11:19:20;;;;;;;28.80;16.55;;;;;;;0.90;100.00;100906.19;5070542;28;20101;-55
2022/11/20 11:21:51;;;;;;;27.20;16.73;;;;;;;0.97;100.00;100902.59;5071538;28;20049;-55
2022/11/20 11:24:24;;;;;;;25.27;15.93;;;;;;;0.97;100.00;100907.75;5074711;28;20056;-54
2022/11/20 11:27:17;;;;;;;26.67;16.23;;;;;;;1.05;100.00;100905.84;5074251;28;20048;-53
2022/11/20 11:29:47;;;;;;;26.67;17.42;;;;;;;1.10;100.00;100890.16;5074420;28;20055;-54